Flight Track Log - Related Links

Times and Time Zones

All times are in EDT time to prevent confusion due to time zone crossing. See the UAL485 flight status page for this flight to view local times or setup timezone preferences in your user account.

Time Position Orientation Groundspeed Altitude Reporting Facility
EDT Latitude Longitude Course Direction KTS MPH feet Rate Location/Type
Fri 01:07:11 PM 29.9592 -95.3392 30° Northeast 157 181 900  Level Houston Center
Fri 01:07:54 PM 29.9731 -95.3061 64° Northeast 191 220 1,800 1,568 Climbing Houston Center
Fri 01:09:02 PM 30.0308 -95.2911 13° North 222 255 3,800 2,279 Climbing Houston Center
Fri 01:10:03 PM 30.1156 -95.2661 14° North 257 296 6,700 2,829 Climbing Houston Center
Fri 01:11:05 PM 30.1797 -95.2150 35° Northeast 276 318 9,600 2,146 Climbing Houston Center
Fri 01:12:00 PM 30.5884 -94.8522 30° Northeast  Level FlightAware Approximate
Fri 01:12:06 PM 30.2450 -95.1594 36° Northeast 288 331 11,100  Level Houston Center
Fri 01:13:07 PM 30.3242 -95.0908 37° Northeast 345 397 12,400 1,561 Climbing Houston Center
Fri 01:14:09 PM 30.4094 -95.0175 37° Northeast 375 432 14,300 1,902 Climbing Houston Center
Fri 01:15:10 PM 30.5042 -94.9344 37° Northeast 392 451 16,300 1,659 Climbing Houston Center
Fri 01:16:12 PM 30.5967 -94.8586 35° Northeast 403 464 17,700 1,463 Climbing Houston Center
Fri 01:17:13 PM 30.6925 -94.7850 33° Northeast 410 472 19,300 1,463 Climbing Houston Center
Fri 01:18:15 PM 30.7892 -94.7100 34° Northeast 416 479 20,700 1,220 Climbing Houston Center
Fri 01:19:16 PM 30.8900 -94.6331 33° Northeast 430 495 21,800 1,171 Climbing Houston Center
Fri 01:20:18 PM 31.0108 -94.5386 34° Northeast 437 503 23,100 1,122 Climbing Houston Center
Fri 01:21:19 PM 31.1158 -94.4578 33° Northeast 452 520 24,100 927 Climbing Houston Center
Fri 01:22:21 PM 31.2214 -94.3744 34° Northeast 460 529 25,000 1,024 Climbing Houston Center
Fri 01:23:22 PM 31.3289 -94.2914 33° Northeast 463 533 26,200 1,707 Climbing Houston Center
Fri 01:24:24 PM 31.4322 -94.2111 34° Northeast 449 517 28,500 1,492 Climbing Houston Center
Fri 01:26:19 PM 31.6367 -94.0508 34° Northeast 445 512 30,600 1,017 Climbing Fort Worth Center
Fri 01:27:21 PM 31.7336 -93.9733 34° Northeast 447 514 31,500 927 Climbing Fort Worth Center
Fri 01:28:22 PM 31.8250 -93.8717 43° Northeast 453 521 32,500 683 Climbing Fort Worth Center
Fri 01:29:24 PM 31.9067 -93.7461 53° Northeast 454 522 32,900 390 Climbing Fort Worth Center
Fri 01:30:25 PM 32.0000 -93.6056 52° Northeast 474 545 33,300 537 Climbing Fort Worth Center
Fri 01:31:27 PM 32.0822 -93.4778 53° Northeast 485 558 34,000 677 Climbing Fort Worth Center
Fri 01:32:29 PM 32.1639 -93.3528 52° Northeast 483 556 34,700 484 Climbing Fort Worth Center
Fri 01:33:31 PM 32.2367 -93.2372 53° Northeast 484 557 35,000 146 Climbing Fort Worth Center
Fri 01:34:32 PM 32.3339 -93.0872 52° Northeast 483 556 35,000  Level Fort Worth Center
Fri 01:35:34 PM 32.4094 -92.9694 53° Northeast 485 558 35,000  Level Fort Worth Center
Fri 01:36:36 PM 32.4992 -92.8314 52° Northeast 493 567 35,000  Level Fort Worth Center
Fri 01:37:38 PM 32.5789 -92.7006 54° Northeast 491 565 35,000  Level Fort Worth Center
Fri 01:38:39 PM 32.6544 -92.5678 56° Northeast 491 565 35,000  Level Fort Worth Center
Fri 01:39:41 PM 32.7303 -92.4344 56° Northeast 490 564 35,000  Level Fort Worth Center
Fri 01:40:43 PM 32.8206 -92.2747 56° Northeast 489 563 35,000  Level Fort Worth Center
Fri 01:41:44 PM 32.8944 -92.1414 57° Northeast 488 562 35,000  Level Fort Worth Center
Fri 01:42:50 PM 32.9672 -92.0128 56° Northeast 486 559 35,000  Level Memphis Center
Fri 01:43:52 PM 33.0417 -91.8803 56° Northeast 486 559 35,000  Level Memphis Center
Fri 01:44:53 PM 33.1306 -91.7197 57° Northeast 485 558 35,000  Level Memphis Center
Fri 01:45:55 PM 33.2050 -91.5858 56° Northeast 485 558 35,000  Level Memphis Center
Fri 01:46:56 PM 33.2792 -91.4514 57° Northeast 486 559 35,000  Level Memphis Center
Fri 01:47:57 PM 33.3522 -91.3164 57° Northeast 486 559 35,000  Level Memphis Center
Fri 01:48:59 PM 33.4275 -91.1806 56° Northeast 486 559 35,000  Level Memphis Center
Fri 01:50:00 PM 33.5017 -91.0439 57° Northeast 488 562 35,000  Level Memphis Center
Fri 01:51:02 PM 33.5767 -90.9089 56° Northeast 488 562 35,000  Level Memphis Center
Fri 01:52:03 PM 33.6503 -90.7717 57° Northeast 488 562 35,000  Level Memphis Center
Fri 01:53:05 PM 33.7389 -90.6081 57° Northeast 489 563 35,000  Level Memphis Center
Fri 01:54:06 PM 33.8128 -90.4697 57° Northeast 489 563 35,000  Level Memphis Center
Fri 01:55:07 PM 33.8794 -90.3456 57° Northeast 490 564 35,000  Level Memphis Center
Fri 01:56:09 PM 33.9689 -90.1789 57° Northeast 492 566 35,000  Level Memphis Center
Fri 01:57:10 PM 34.0419 -90.0394 58° Northeast 492 566 35,000  Level Memphis Center
Fri 01:58:12 PM 34.1161 -89.8994 57° Northeast 493 567 35,000  Level Memphis Center
Fri 01:59:13 PM 34.1897 -89.7594 58° Northeast 494 568 35,000  Level Memphis Center
Fri 02:00:14 PM 34.2631 -89.6189 58° Northeast 495 570 35,000  Level Memphis Center
Fri 02:01:16 PM 34.3356 -89.4772 58° Northeast 496 571 35,000  Level Memphis Center
Fri 02:02:17 PM 34.4086 -89.3372 58° Northeast 496 571 35,000  Level Memphis Center
Fri 02:03:19 PM 34.4967 -89.1661 58° Northeast 499 574 35,000  Level Memphis Center
Fri 02:04:20 PM 34.5708 -89.0250 57° Northeast 499 574 35,000  Level Memphis Center
Fri 02:05:22 PM 34.6458 -88.8822 57° Northeast 500 575 35,000  Level Memphis Center
Fri 02:06:23 PM 34.7375 -88.7533 49° Northeast 504 580 35,000  Level Memphis Center
Fri 02:07:24 PM 34.8286 -88.6236 49° Northeast 504 580 35,000  Level Memphis Center
Fri 02:08:26 PM 34.9294 -88.4775 50° Northeast 504 580 35,000  Level Memphis Center
Fri 02:09:27 PM 35.0203 -88.3453 50° Northeast 505 581 35,000  Level Memphis Center
Fri 02:10:29 PM 35.1119 -88.2122 50° Northeast 506 582 35,000  Level Memphis Center
Fri 02:11:30 PM 35.2033 -88.0797 50° Northeast 506 582 35,000  Level Memphis Center
Fri 02:12:32 PM 35.2950 -87.9447 50° Northeast 509 586 35,000  Level Memphis Center
Fri 02:13:33 PM 35.3867 -87.8114 50° Northeast 509 586 35,000  Level Memphis Center
Fri 02:14:35 PM 35.4775 -87.6769 50° Northeast 513 590 35,000  Level Memphis Center
Fri 02:15:36 PM 35.5853 -87.5147 51° Northeast 518 596 35,000  Level Memphis Center
Fri 02:16:38 PM 35.6781 -87.3756 51° Northeast 518 596 35,000  Level Memphis Center
Fri 02:17:39 PM 35.7472 -87.2164 62° Northeast 523 602 35,000  Level Memphis Center
Fri 02:18:41 PM 35.8067 -87.0536 66° East 524 603 35,000  Level Memphis Center
Fri 02:19:42 PM 35.8658 -86.8922 66° East 521 600 35,000  Level Memphis Center
Fri 02:20:44 PM 35.9244 -86.7311 66° East 519 597 35,000  Level Memphis Center
Fri 02:21:45 PM 35.9822 -86.5700 66° East 517 595 35,000  Level Memphis Center
Fri 02:22:47 PM 36.0403 -86.4081 66° East 517 595 35,000  Level Memphis Center
Fri 02:23:49 PM 36.1086 -86.2197 66° East 516 594 35,000  Level Memphis Center
Fri 02:24:50 PM 36.1664 -86.0583 66° East 516 594 35,000  Level Memphis Center
Fri 02:25:52 PM 36.2239 -85.8950 66° East 515 593 35,000  Level Memphis Center
Fri 02:26:53 PM 36.2831 -85.7269 66° East 515 593 35,000  Level Memphis Center
Fri 02:27:55 PM 36.3414 -85.5647 66° East 515 593 35,000  Level Memphis Center
Fri 02:28:57 PM 36.3981 -85.4003 67° East 515 593 35,000  Level Memphis Center
Fri 02:29:58 PM 36.4553 -85.2361 67° East 515 593 35,000  Level Memphis Center
Fri 02:31:00 PM 36.5125 -85.0700 67° East 517 595 35,000  Level Memphis Center
Fri 02:32:01 PM 36.5686 -84.9044 67° East 517 595 35,000  Level Memphis Center
Fri 02:33:16 PM 36.6375 -84.7044 67° East 516 594 35,000  Level Indianapolis Center
Fri 02:34:17 PM 36.6922 -84.5378 68° East 516 594 35,000  Level Indianapolis Center
Fri 02:35:18 PM 36.7569 -84.3481 67° East 518 596 35,000  Level Indianapolis Center
Fri 02:36:20 PM 36.8131 -84.1808 67° East 519 597 35,000  Level Indianapolis Center
Fri 02:37:21 PM 36.8686 -84.0119 68° East 522 601 35,000  Level Indianapolis Center
Fri 02:38:22 PM 36.9239 -83.8447 67° East 522 601 35,000  Level Indianapolis Center
Fri 02:39:23 PM 36.9797 -83.6756 68° East 522 601 35,000  Level Indianapolis Center
Fri 02:40:24 PM 37.0350 -83.5072 68° East 522 601 35,000  Level Indianapolis Center
Fri 02:41:25 PM 37.0917 -83.3369 67° East 524 603 35,000  Level Indianapolis Center
Fri 02:42:26 PM 37.1475 -83.1650 68° East 525 604 35,000  Level Indianapolis Center
Fri 02:43:27 PM 37.2031 -82.9914 68° East 526 605 35,000  Level Indianapolis Center
Fri 02:44:28 PM 37.2583 -82.8178 68° East 527 606 35,000  Level Indianapolis Center
Fri 02:45:29 PM 37.3128 -82.6447 68° East 527 606 35,000  Level Indianapolis Center
Fri 02:46:30 PM 37.3672 -82.4717 68° East 527 606 35,000  Level Indianapolis Center
Fri 02:47:31 PM 37.4219 -82.2981 68° East 529 609 35,000  Level Indianapolis Center
Fri 02:48:32 PM 37.4853 -82.0947 69° East 529 609 35,000  Level Indianapolis Center
Fri 02:49:34 PM 37.5386 -81.9222 69° East 529 609 35,000  Level Indianapolis Center
Fri 02:50:35 PM 37.5917 -81.7486 69° East 529 609 35,000  Level Indianapolis Center
Fri 02:51:36 PM 37.6442 -81.5725 69° East 531 611 35,000  Level Indianapolis Center
Fri 02:52:37 PM 37.7011 -81.3903 68° East 531 611 35,000  Level Indianapolis Center
Fri 02:53:38 PM 37.7531 -81.2136 70° East 533 613 35,000  Level Indianapolis Center
Fri 02:54:39 PM 37.7856 -81.0314 77° East 536 617 35,000  Level Indianapolis Center
Fri 02:55:40 PM 37.7989 -80.8456 85° East 536 617 35,000  Level Indianapolis Center
Fri 02:56:42 PM 37.8100 -80.6608 86° East 534 615 35,000  Level Indianapolis Center
Fri 02:57:12 PM 37.8147 -80.5864 85° East 525 604 35,000  Level Washington Center
Fri 02:58:10 PM 37.8286 -80.4033 84° East 525 604 35,000  Level Washington Center
Fri 02:59:10 PM 37.8400 -80.2172 86° East 525 604 35,000  Level Washington Center
Fri 03:00:11 PM 37.8508 -80.0392 86° East 525 604 35,000  Level Washington Center
Fri 03:01:11 PM 37.8639 -79.8531 85° East 520 598 35,000  Level Washington Center
Fri 03:02:11 PM 37.8744 -79.6694 86° East 520 598 35,000  Level Washington Center
Fri 03:03:12 PM 37.8869 -79.4808 85° East 520 598 35,000  Level Washington Center
Fri 03:04:09 PM 37.8969 -79.2969 86° East 520 598 35,000  Level Washington Center
Fri 03:05:10 PM 37.9047 -79.1158 87° East 520 598 35,000  Level Washington Center
Fri 03:06:10 PM 37.9264 -78.9353 81° East 520 598 35,000  Level Washington Center
Fri 03:07:11 PM 37.9792 -78.7583 69° East 513 590 35,000  Level Washington Center
Fri 03:08:12 PM 38.0419 -78.5869 65° Northeast 518 596 35,000  Level Washington Center
Fri 03:09:10 PM 38.1025 -78.4178 65° Northeast 523 602 35,000  Level Washington Center
Fri 03:10:10 PM 38.1647 -78.2458 65° Northeast 530 610 35,000  Level Washington Center
Fri 03:11:11 PM 38.2289 -78.0711 65° Northeast 536 617 35,000  Level Washington Center
Fri 03:12:12 PM 38.2908 -77.8986 65° Northeast 536 617 35,000  Level Washington Center
Fri 03:13:12 PM 38.3544 -77.7231 65° Northeast 536 617 35,000  Level Washington Center
Fri 03:14:10 PM 38.4178 -77.5528 65° Northeast 542 624 35,000 -300 Level Washington Center
Fri 03:15:12 PM 38.4789 -77.3792 66° East 536 617 34,400 -750 Descending Washington Center
Fri 03:16:10 PM 38.5375 -77.2133 66° East 527 606 33,500 -966 Descending Washington Center
Fri 03:17:10 PM 38.5978 -77.0633 63° Northeast 496 571 32,500 -1,240 Descending Washington Center
Fri 03:18:11 PM 38.6786 -76.9372 51° Northeast 473 544 31,000 -1,438 Descending Washington Center
Fri 03:19:11 PM 38.7550 -76.8136 52° Northeast 451 519 29,600 -1,475 Descending Washington Center
Fri 03:20:09 PM 38.8311 -76.6922 51° Northeast 441 507 28,100 -1,311 Descending Washington Center
Fri 03:21:10 PM 38.9031 -76.5758 52° Northeast 434 499 27,000 -545 Descending Washington Center
Fri 03:22:10 PM 38.9747 -76.4619 51° Northeast 419 482 27,000  Level Washington Center
Fri 03:23:11 PM 39.0486 -76.3481 50° Northeast 412 474 27,000  Level Washington Center
Fri 03:24:12 PM 39.1444 -76.3464 North 349 402 27,000  Level Washington Center
Fri 03:25:12 PM 39.1814 -76.4458 296° West 239 275 27,000  Level Washington Center
Fri 03:26:10 PM 39.1453 -76.5364 243° Southwest 196 226 27,000  Level Washington Center
Fri 03:27:11 PM 39.0842 -76.6078 222° Southwest 238 274 27,000  Level Washington Center
Fri 03:28:12 PM 39.0272 -76.6792 224° Southwest 262 302 27,000  Level Washington Center
Fri 03:29:10 PM 38.9497 -76.7153 200° South 284 327 27,000  Level Washington Center
Fri 03:30:10 PM 38.8797 -76.6342 138° Southeast 274 315 27,000  Level Washington Center
Fri 03:31:11 PM 38.9161 -76.4986 71° East 250 288 27,000  Level Washington Center
Fri 03:32:10 PM 39.0128 -76.3878 42° Northeast 304 350 27,000  Level Washington Center
Fri 03:33:10 PM 39.1200 -76.2683 41° Northeast 413 475 27,000 -50 Level Washington Center
Fri 03:34:11 PM 39.2311 -76.1408 42° Northeast 469 540 26,900 -443 Descending Washington Center
Fri 03:35:12 PM 39.3356 -76.0183 42° Northeast 493 567 26,100 -1,412 Descending Washington Center
Fri 03:36:10 PM 39.4381 -75.8925 43° Northeast 507 583 24,100 -1,881 Descending Washington Center
Fri 03:37:10 PM 39.5383 -75.7772 42° Northeast 495 570 22,400 -1,600 Descending Washington Center
Fri 03:38:10 PM 39.6322 -75.6669 42° Northeast 473 544 20,900 -1,636 Descending Washington Center
Fri 03:39:11 PM 39.7219 -75.5592 43° Northeast 452 520 19,100 -1,721 Descending Washington Center
Fri 03:40:12 PM 39.8114 -75.4511 43° Northeast 441 507 17,400 -1,714 Descending Washington Center
Fri 03:41:10 PM 39.8944 -75.3481 44° Northeast 429 494 15,700 -1,700 Descending Washington Center
Fri 03:42:12 PM 39.9775 -75.2478 43° Northeast 413 475 14,000 -1,650 Descending Washington Center
Fri 03:43:10 PM 40.0564 -75.1522 43° Northeast 395 455 12,400 -1,462 Descending Washington Center
Fri 03:44:11 PM 40.1333 -75.0500 45° Northeast 343 395 11,100 -1,289 Descending New York TRACON
Fri 03:45:11 PM 40.2000 -74.9667 44° Northeast 302 348 9,800 -1,158 Descending New York TRACON
Fri 03:46:05 PM 40.2500 -74.9000 45° Northeast 291 335 8,900 -900 Descending New York TRACON
Fri 03:47:11 PM 40.3167 -74.8167 44° Northeast 272 313 8,000 -600 Descending New York TRACON
Fri 03:48:05 PM 40.3500 -74.7833 37° Northeast 229 264 7,700 -684 Descending New York TRACON
Fri 03:49:05 PM 40.3833 -74.7167 57° Northeast 225 259 6,700 -1,095 Descending New York TRACON
Fri 03:50:11 PM 40.3667 -74.6167 102° East 225 259 5,400 -1,050 Descending New York TRACON
Fri 03:51:05 PM 40.3500 -74.5667 114° Southeast 221 254 4,600 -789 Descending New York TRACON
Fri 03:52:05 PM 40.3167 -74.4833 118° Southeast 203 234 3,900 -800 Descending New York TRACON
Fri 03:53:05 PM 40.3167 -74.4333 90° East 178 205 3,000 -429 Descending New York TRACON
Fri 03:54:11 PM 40.3500 -74.3833 49° Northeast 151 174 3,000  Level New York TRACON
Fri 03:55:05 PM 40.3833 -74.3667 21° North 146 168 3,000  Level New York TRACON
Fri 03:56:05 PM 40.4167 -74.3333 37° Northeast 148 170 3,000  Level New York TRACON
Fri 03:57:11 PM 40.4667 -74.3167 14° North 150 173 3,000  Level New York TRACON
Fri 03:58:11 PM 40.5000 -74.2833 37° Northeast 149 171 3,000  Level New York TRACON
Fri 03:59:11 PM 40.5333 -74.2667 21° North 134 154 3,000 -211 Level New York TRACON
Fri 04:00:05 PM 40.5667 -74.2500 21° North 139 160 2,600 -650 Descending New York TRACON
Fri 04:01:11 PM 40.6000 -74.2167 37° Northeast 132 152 1,700 -714 Descending New York TRACON
Fri 04:02:11 PM 40.6333 -74.2000 21° North 127 146 1,100 -650 Descending New York TRACON
Fri 04:03:11 PM 40.6667 -74.1833 21° North 129 148 400 -700 Descending New York TRACON

Login

Don't have an account? Register now (free) for customized features, flight alerts, and more!